sensor_id;sensor_type;location;lat;lon;timestamp;temperature;humidity
25360;DHT22;13311;51.386;0.016;2022-12-10T00:00:53;1.70;99.30
25360;DHT22;13311;51.386;0.016;2022-12-10T00:05:54;1.70;99.20
25360;DHT22;13311;51.386;0.016;2022-12-10T00:10:55;1.70;99.20
25360;DHT22;13311;51.386;0.016;2022-12-10T00:15:59;1.70;99.20
25360;DHT22;13311;51.386;0.016;2022-12-10T00:21:10;1.60;99.10
25360;DHT22;13311;51.386;0.016;2022-12-10T00:26:17;1.60;99.10
25360;DHT22;13311;51.386;0.016;2022-12-10T00:31:22;1.60;99.10
25360;DHT22;13311;51.386;0.016;2022-12-10T00:36:27;1.60;99.10
25360;DHT22;13311;51.386;0.016;2022-12-10T00:41:30;1.60;99.20
25360;DHT22;13311;51.386;0.016;2022-12-10T00:46:31;1.60;99.30
25360;DHT22;13311;51.386;0.016;2022-12-10T00:51:32;1.70;99.30
25360;DHT22;13311;51.386;0.016;2022-12-10T00:56:33;1.70;99.30
25360;DHT22;13311;51.386;0.016;2022-12-10T01:01:37;1.70;99.10
25360;DHT22;13311;51.386;0.016;2022-12-10T01:06:47;1.70;99.00
25360;DHT22;13311;51.386;0.016;2022-12-10T01:11:57;1.60;98.70
25360;DHT22;13311;51.386;0.016;2022-12-10T01:17:04;1.60;98.70
25360;DHT22;13311;51.386;0.016;2022-12-10T01:22:06;1.60;98.60
25360;DHT22;13311;51.386;0.016;2022-12-10T01:27:06;1.60;98.60
25360;DHT22;13311;51.386;0.016;2022-12-10T01:32:07;1.50;98.50
25360;DHT22;13311;51.386;0.016;2022-12-10T01:37:13;1.50;98.50
25360;DHT22;13311;51.386;0.016;2022-12-10T01:42:14;1.40;98.60
25360;DHT22;13311;51.386;0.016;2022-12-10T01:47:15;1.40;98.60
25360;DHT22;13311;51.386;0.016;2022-12-10T01:52:17;1.40;98.60
25360;DHT22;13311;51.386;0.016;2022-12-10T01:57:21;1.40;98.70
25360;DHT22;13311;51.386;0.016;2022-12-10T02:02:44;1.40;98.90
25360;DHT22;13311;51.386;0.016;2022-12-10T02:13:40;1.40;99.00
25360;DHT22;13311;51.386;0.016;2022-12-10T02:24:35;1.30;99.20
25360;DHT22;13311;51.386;0.016;2022-12-10T02:29:37;1.20;99.10
25360;DHT22;13311;51.386;0.016;2022-12-10T02:34:42;1.20;99.00
25360;DHT22;13311;51.386;0.016;2022-12-10T02:39:48;1.20;98.90
25360;DHT22;13311;51.386;0.016;2022-12-10T02:44:53;1.20;98.80
25360;DHT22;13311;51.386;0.016;2022-12-10T02:49:57;1.10;98.60
25360;DHT22;13311;51.386;0.016;2022-12-10T03:00:57;1.00;98.50
25360;DHT22;13311;51.386;0.016;2022-12-10T03:06:18;1.00;98.50
25360;DHT22;13311;51.386;0.016;2022-12-10T03:11:23;0.90;98.40
25360;DHT22;13311;51.386;0.016;2022-12-10T03:16:25;0.90;98.40
25360;DHT22;13311;51.386;0.016;2022-12-10T03:21:30;0.80;98.50
25360;DHT22;13311;51.386;0.016;2022-12-10T03:26:33;0.80;98.30
25360;DHT22;13311;51.386;0.016;2022-12-10T03:31:35;0.70;98.30
25360;DHT22;13311;51.386;0.016;2022-12-10T03:36:39;0.60;98.30
25360;DHT22;13311;51.386;0.016;2022-12-10T03:41:41;0.60;98.30
25360;DHT22;13311;51.386;0.016;2022-12-10T03:46:42;0.60;98.50
25360;DHT22;13311;51.386;0.016;2022-12-10T03:51:42;0.50;98.40
25360;DHT22;13311;51.386;0.016;2022-12-10T03:56:43;0.50;98.40
25360;DHT22;13311;51.386;0.016;2022-12-10T04:01:44;0.50;98.30
25360;DHT22;13311;51.386;0.016;2022-12-10T04:06:45;0.50;98.30
25360;DHT22;13311;51.386;0.016;2022-12-10T04:11:45;0.40;98.40
25360;DHT22;13311;51.386;0.016;2022-12-10T04:16:46;0.50;98.40
25360;DHT22;13311;51.386;0.016;2022-12-10T04:21:47;0.40;98.30
25360;DHT22;13311;51.386;0.016;2022-12-10T04:27:10;0.40;98.00
25360;DHT22;13311;51.386;0.016;2022-12-10T04:32:13;0.40;98.00
25360;DHT22;13311;51.386;0.016;2022-12-10T04:37:14;0.30;98.10
25360;DHT22;13311;51.386;0.016;2022-12-10T04:42:17;0.30;98.30
25360;DHT22;13311;51.386;0.016;2022-12-10T04:47:18;0.40;98.50
25360;DHT22;13311;51.386;0.016;2022-12-10T04:52:19;0.40;98.40
25360;DHT22;13311;51.386;0.016;2022-12-10T04:57:19;0.40;98.40
25360;DHT22;13311;51.386;0.016;2022-12-10T05:02:20;0.40;98.30
25360;DHT22;13311;51.386;0.016;2022-12-10T05:07:20;0.40;98.30
25360;DHT22;13311;51.386;0.016;2022-12-10T05:12:21;0.40;98.40
25360;DHT22;13311;51.386;0.016;2022-12-10T05:17:22;0.30;98.50
25360;DHT22;13311;51.386;0.016;2022-12-10T05:22:22;0.30;98.60
25360;DHT22;13311;51.386;0.016;2022-12-10T05:27:42;0.40;98.50
25360;DHT22;13311;51.386;0.016;2022-12-10T05:32:43;0.40;98.40
25360;DHT22;13311;51.386;0.016;2022-12-10T05:37:43;0.40;98.40
25360;DHT22;13311;51.386;0.016;2022-12-10T05:42:44;0.40;98.50
25360;DHT22;13311;51.386;0.016;2022-12-10T05:47:45;0.40;98.60
25360;DHT22;13311;51.386;0.016;2022-12-10T05:52:45;0.40;98.60
25360;DHT22;13311;51.386;0.016;2022-12-10T05:57:46;0.50;98.70
25360;DHT22;13311;51.386;0.016;2022-12-10T06:02:47;0.50;98.70
25360;DHT22;13311;51.386;0.016;2022-12-10T06:07:47;0.50;98.80
25360;DHT22;13311;51.386;0.016;2022-12-10T06:12:48;0.50;98.90
25360;DHT22;13311;51.386;0.016;2022-12-10T06:17:49;0.50;98.90
25360;DHT22;13311;51.386;0.016;2022-12-10T06:22:49;0.50;98.90
25360;DHT22;13311;51.386;0.016;2022-12-10T06:27:50;0.40;98.90
25360;DHT22;13311;51.386;0.016;2022-12-10T06:32:51;0.40;98.90
25360;DHT22;13311;51.386;0.016;2022-12-10T06:37:52;0.40;98.70
25360;DHT22;13311;51.386;0.016;2022-12-10T06:42:52;0.40;98.70
25360;DHT22;13311;51.386;0.016;2022-12-10T06:47:53;0.40;98.60
25360;DHT22;13311;51.386;0.016;2022-12-10T06:52:54;0.30;98.60
25360;DHT22;13311;51.386;0.016;2022-12-10T06:57:55;0.20;98.40
25360;DHT22;13311;51.386;0.016;2022-12-10T07:02:55;0.20;98.40
25360;DHT22;13311;51.386;0.016;2022-12-10T07:07:56;0.20;98.60
25360;DHT22;13311;51.386;0.016;2022-12-10T07:12:57;0.20;98.50
25360;DHT22;13311;51.386;0.016;2022-12-10T07:17:58;0.10;98.50
25360;DHT22;13311;51.386;0.016;2022-12-10T07:22:59;0.00;98.60
25360;DHT22;13311;51.386;0.016;2022-12-10T07:28:00;0.10;98.90
25360;DHT22;13311;51.386;0.016;2022-12-10T07:33:01;0.00;98.60
25360;DHT22;13311;51.386;0.016;2022-12-10T07:38:02;0.00;98.50
25360;DHT22;13311;51.386;0.016;2022-12-10T07:43:04;0.00;98.40
25360;DHT22;13311;51.386;0.016;2022-12-10T07:48:05;0.00;98.30
25360;DHT22;13311;51.386;0.016;2022-12-10T07:53:06;-0.10;98.20
25360;DHT22;13311;51.386;0.016;2022-12-10T07:58:08;-0.10;98.30
25360;DHT22;13311;51.386;0.016;2022-12-10T08:03:09;-0.10;98.50
25360;DHT22;13311;51.386;0.016;2022-12-10T08:08:10;-0.20;98.70
25360;DHT22;13311;51.386;0.016;2022-12-10T08:13:11;-0.10;98.70
25360;DHT22;13311;51.386;0.016;2022-12-10T08:18:12;-0.10;98.50
25360;DHT22;13311;51.386;0.016;2022-12-10T08:23:13;-0.10;98.60
25360;DHT22;13311;51.386;0.016;2022-12-10T08:28:14;0.10;98.80
25360;DHT22;13311;51.386;0.016;2022-12-10T08:33:15;0.10;98.70
25360;DHT22;13311;51.386;0.016;2022-12-10T08:38:16;0.10;98.70
25360;DHT22;13311;51.386;0.016;2022-12-10T08:43:16;0.10;98.90
25360;DHT22;13311;51.386;0.016;2022-12-10T08:48:17;0.10;99.10
25360;DHT22;13311;51.386;0.016;2022-12-10T08:53:18;0.20;99.10
25360;DHT22;13311;51.386;0.016;2022-12-10T08:58:19;0.20;99.30
25360;DHT22;13311;51.386;0.016;2022-12-10T09:03:20;0.30;99.40
25360;DHT22;13311;51.386;0.016;2022-12-10T09:08:21;0.40;99.40
25360;DHT22;13311;51.386;0.016;2022-12-10T09:13:22;0.50;99.60
25360;DHT22;13311;51.386;0.016;2022-12-10T09:18:22;0.70;99.70
25360;DHT22;13311;51.386;0.016;2022-12-10T09:23:23;0.90;99.80
25360;DHT22;13311;51.386;0.016;2022-12-10T09:28:24;1.00;99.70
25360;DHT22;13311;51.386;0.016;2022-12-10T09:33:26;1.20;99.70
25360;DHT22;13311;51.386;0.016;2022-12-10T09:38:27;1.50;99.70
25360;DHT22;13311;51.386;0.016;2022-12-10T09:53:56;1.90;99.80
25360;DHT22;13311;51.386;0.016;2022-12-10T09:59:11;2.10;99.90
25360;DHT22;13311;51.386;0.016;2022-12-10T10:04:17;2.20;99.90
25360;DHT22;13311;51.386;0.016;2022-12-10T10:09:19;2.40;99.90
25360;DHT22;13311;51.386;0.016;2022-12-10T10:14:25;2.70;99.90
25360;DHT22;13311;51.386;0.016;2022-12-10T10:19:34;3.10;99.90
25360;DHT22;13311;51.386;0.016;2022-12-10T10:24:41;3.50;99.90
25360;DHT22;13311;51.386;0.016;2022-12-10T10:29:48;4.00;99.90
25360;DHT22;13311;51.386;0.016;2022-12-10T10:35:00;4.30;99.90
25360;DHT22;13311;51.386;0.016;2022-12-10T10:40:01;4.70;99.90
25360;DHT22;13311;51.386;0.016;2022-12-10T10:45:06;5.10;99.90
25360;DHT22;13311;51.386;0.016;2022-12-10T10:50:28;5.30;99.90
25360;DHT22;13311;51.386;0.016;2022-12-10T10:55:33;5.70;99.60
25360;DHT22;13311;51.386;0.016;2022-12-10T11:00:35;5.90;98.90
25360;DHT22;13311;51.386;0.016;2022-12-10T11:05:36;6.10;98.70
25360;DHT22;13311;51.386;0.016;2022-12-10T11:10:37;6.20;98.20
25360;DHT22;13311;51.386;0.016;2022-12-10T11:16:02;6.30;97.80
25360;DHT22;13311;51.386;0.016;2022-12-10T11:21:20;6.40;97.50
25360;DHT22;13311;51.386;0.016;2022-12-10T11:37:19;6.40;97.10
25360;DHT22;13311;51.386;0.016;2022-12-10T11:58:28;6.60;97.30
25360;DHT22;13311;51.386;0.016;2022-12-10T12:09:01;7.00;96.70
25360;DHT22;13311;51.386;0.016;2022-12-10T12:14:07;7.20;96.80
25360;DHT22;13311;51.386;0.016;2022-12-10T12:19:37;7.40;96.00
25360;DHT22;13311;51.386;0.016;2022-12-10T12:24:41;7.60;95.60
25360;DHT22;13311;51.386;0.016;2022-12-10T12:35:16;7.80;95.00
25360;DHT22;13311;51.386;0.016;2022-12-10T12:40:30;7.90;94.80
25360;DHT22;13311;51.386;0.016;2022-12-10T12:45:45;7.90;94.40
25360;DHT22;13311;51.386;0.016;2022-12-10T12:50:51;7.90;94.40
25360;DHT22;13311;51.386;0.016;2022-12-10T13:06:35;8.00;94.10
25360;DHT22;13311;51.386;0.016;2022-12-10T13:11:42;8.00;94.00
25360;DHT22;13311;51.386;0.016;2022-12-10T13:27:39;8.00;93.50
25360;DHT22;13311;51.386;0.016;2022-12-10T13:32:45;7.70;93.80
25360;DHT22;13311;51.386;0.016;2022-12-10T13:48:44;6.90;94.60
25360;DHT22;13311;51.386;0.016;2022-12-10T14:10:15;6.50;96.20
25360;DHT22;13311;51.386;0.016;2022-12-10T14:15:20;6.60;96.40
25360;DHT22;13311;51.386;0.016;2022-12-10T14:20:25;6.80;96.20
25360;DHT22;13311;51.386;0.016;2022-12-10T14:25:26;6.80;95.80
25360;DHT22;13311;51.386;0.016;2022-12-10T14:30:28;6.90;95.60
25360;DHT22;13311;51.386;0.016;2022-12-10T14:35:29;6.80;95.50
25360;DHT22;13311;51.386;0.016;2022-12-10T14:40:40;6.70;95.50
25360;DHT22;13311;51.386;0.016;2022-12-10T14:45:54;6.80;95.50
25360;DHT22;13311;51.386;0.016;2022-12-10T14:51:03;6.70;95.50
25360;DHT22;13311;51.386;0.016;2022-12-10T14:56:05;6.60;95.60
25360;DHT22;13311;51.386;0.016;2022-12-10T15:06:27;6.40;95.60
25360;DHT22;13311;51.386;0.016;2022-12-10T15:11:28;6.30;95.70
25360;DHT22;13311;51.386;0.016;2022-12-10T15:16:41;6.20;95.70
25360;DHT22;13311;51.386;0.016;2022-12-10T15:21:45;6.10;95.80
25360;DHT22;13311;51.386;0.016;2022-12-10T15:26:50;6.10;96.00
25360;DHT22;13311;51.386;0.016;2022-12-10T15:32:01;6.00;96.10
25360;DHT22;13311;51.386;0.016;2022-12-10T15:37:06;5.90;96.20
25360;DHT22;13311;51.386;0.016;2022-12-10T15:42:42;5.80;96.30
25360;DHT22;13311;51.386;0.016;2022-12-10T15:47:44;5.60;96.50
25360;DHT22;13311;51.386;0.016;2022-12-10T15:52:45;5.50;96.60
25360;DHT22;13311;51.386;0.016;2022-12-10T15:57:46;5.30;96.70
25360;DHT22;13311;51.386;0.016;2022-12-10T16:03:01;5.10;96.80
25360;DHT22;13311;51.386;0.016;2022-12-10T16:13:25;4.80;97.20
25360;DHT22;13311;51.386;0.016;2022-12-10T16:18:31;4.60;97.20
25360;DHT22;13311;51.386;0.016;2022-12-10T16:23:33;4.50;97.40
25360;DHT22;13311;51.386;0.016;2022-12-10T16:28:34;4.30;97.60
25360;DHT22;13311;51.386;0.016;2022-12-10T16:33:34;4.20;97.70
25360;DHT22;13311;51.386;0.016;2022-12-10T16:38:35;4.20;97.70
25360;DHT22;13311;51.386;0.016;2022-12-10T16:43:36;4.10;97.90
25360;DHT22;13311;51.386;0.016;2022-12-10T16:48:37;3.90;98.00
25360;DHT22;13311;51.386;0.016;2022-12-10T16:53:37;3.80;98.00
25360;DHT22;13311;51.386;0.016;2022-12-10T16:58:38;3.80;98.10
25360;DHT22;13311;51.386;0.016;2022-12-10T17:03:39;3.60;98.20
25360;DHT22;13311;51.386;0.016;2022-12-10T17:08:39;3.50;98.30
25360;DHT22;13311;51.386;0.016;2022-12-10T17:13:41;3.40;98.50
25360;DHT22;13311;51.386;0.016;2022-12-10T17:18:42;3.30;98.60
25360;DHT22;13311;51.386;0.016;2022-12-10T17:23:43;3.30;98.60
25360;DHT22;13311;51.386;0.016;2022-12-10T17:28:44;3.20;98.60
25360;DHT22;13311;51.386;0.016;2022-12-10T17:33:45;3.20;98.60
25360;DHT22;13311;51.386;0.016;2022-12-10T17:38:46;3.10;98.60
25360;DHT22;13311;51.386;0.016;2022-12-10T17:43:46;3.00;98.70
25360;DHT22;13311;51.386;0.016;2022-12-10T17:48:48;3.00;98.80
25360;DHT22;13311;51.386;0.016;2022-12-10T17:53:49;2.90;98.80
25360;DHT22;13311;51.386;0.016;2022-12-10T17:58:50;2.90;99.20
25360;DHT22;13311;51.386;0.016;2022-12-10T18:03:53;2.90;99.00
25360;DHT22;13311;51.386;0.016;2022-12-10T18:08:56;2.80;99.00
25360;DHT22;13311;51.386;0.016;2022-12-10T18:13:58;2.80;98.90
25360;DHT22;13311;51.386;0.016;2022-12-10T18:19:02;2.80;98.80
25360;DHT22;13311;51.386;0.016;2022-12-10T18:24:05;2.70;98.80
25360;DHT22;13311;51.386;0.016;2022-12-10T18:29:06;2.70;98.80
25360;DHT22;13311;51.386;0.016;2022-12-10T18:34:09;2.70;98.90
25360;DHT22;13311;51.386;0.016;2022-12-10T18:44:24;2.50;99.10
25360;DHT22;13311;51.386;0.016;2022-12-10T18:49:26;2.40;99.10
25360;DHT22;13311;51.386;0.016;2022-12-10T18:54:30;2.40;99.10
25360;DHT22;13311;51.386;0.016;2022-12-10T18:59:30;2.40;99.10
25360;DHT22;13311;51.386;0.016;2022-12-10T19:04:31;2.40;99.00
25360;DHT22;13311;51.386;0.016;2022-12-10T19:09:32;2.40;98.90
25360;DHT22;13311;51.386;0.016;2022-12-10T19:14:35;2.30;98.70
25360;DHT22;13311;51.386;0.016;2022-12-10T19:19:36;2.20;98.80
25360;DHT22;13311;51.386;0.016;2022-12-10T19:24:36;2.20;98.90
25360;DHT22;13311;51.386;0.016;2022-12-10T19:29:37;2.10;98.80
25360;DHT22;13311;51.386;0.016;2022-12-10T19:34:40;2.10;98.80
25360;DHT22;13311;51.386;0.016;2022-12-10T19:39:41;2.10;98.80
25360;DHT22;13311;51.386;0.016;2022-12-10T19:44:42;2.10;98.80
25360;DHT22;13311;51.386;0.016;2022-12-10T19:49:43;2.10;98.90
25360;DHT22;13311;51.386;0.016;2022-12-10T19:54:43;2.10;99.00
25360;DHT22;13311;51.386;0.016;2022-12-10T19:59:44;2.00;99.00
25360;DHT22;13311;51.386;0.016;2022-12-10T20:04:45;2.00;99.00
25360;DHT22;13311;51.386;0.016;2022-12-10T20:09:45;2.00;99.00
25360;DHT22;13311;51.386;0.016;2022-12-10T20:14:46;1.90;99.00
25360;DHT22;13311;51.386;0.016;2022-12-10T20:19:47;1.90;98.90
25360;DHT22;13311;51.386;0.016;2022-12-10T20:24:47;1.90;99.00
25360;DHT22;13311;51.386;0.016;2022-12-10T20:29:49;1.80;99.00
25360;DHT22;13311;51.386;0.016;2022-12-10T20:34:50;1.80;99.10
25360;DHT22;13311;51.386;0.016;2022-12-10T20:39:51;1.70;99.30
25360;DHT22;13311;51.386;0.016;2022-12-10T20:44:51;1.70;99.30
25360;DHT22;13311;51.386;0.016;2022-12-10T20:49:52;1.60;99.20
25360;DHT22;13311;51.386;0.016;2022-12-10T20:54:53;1.60;99.00
25360;DHT22;13311;51.386;0.016;2022-12-10T20:59:53;1.50;98.80
25360;DHT22;13311;51.386;0.016;2022-12-10T21:04:54;1.50;99.00
25360;DHT22;13311;51.386;0.016;2022-12-10T21:09:55;1.40;98.80
25360;DHT22;13311;51.386;0.016;2022-12-10T21:14:55;1.40;98.90
25360;DHT22;13311;51.386;0.016;2022-12-10T21:19:56;1.40;98.80
25360;DHT22;13311;51.386;0.016;2022-12-10T21:24:57;1.30;98.80
25360;DHT22;13311;51.386;0.016;2022-12-10T21:29:57;1.30;98.70
25360;DHT22;13311;51.386;0.016;2022-12-10T21:34:58;1.30;98.70
25360;DHT22;13311;51.386;0.016;2022-12-10T21:39:59;1.30;98.70
25360;DHT22;13311;51.386;0.016;2022-12-10T21:45:00;1.20;98.60
25360;DHT22;13311;51.386;0.016;2022-12-10T21:50:00;1.20;98.80
25360;DHT22;13311;51.386;0.016;2022-12-10T21:55:01;1.10;98.70
25360;DHT22;13311;51.386;0.016;2022-12-10T22:00:04;1.10;98.70
25360;DHT22;13311;51.386;0.016;2022-12-10T22:05:06;1.00;98.80
25360;DHT22;13311;51.386;0.016;2022-12-10T22:10:10;0.90;98.80
25360;DHT22;13311;51.386;0.016;2022-12-10T22:15:13;0.90;98.90
25360;DHT22;13311;51.386;0.016;2022-12-10T22:20:13;0.90;98.80
25360;DHT22;13311;51.386;0.016;2022-12-10T22:25:14;0.90;98.80
25360;DHT22;13311;51.386;0.016;2022-12-10T22:30:15;0.90;98.90
25360;DHT22;13311;51.386;0.016;2022-12-10T22:35:16;0.90;98.90
25360;DHT22;13311;51.386;0.016;2022-12-10T22:40:17;0.90;98.80
25360;DHT22;13311;51.386;0.016;2022-12-10T22:45:18;0.90;98.80
25360;DHT22;13311;51.386;0.016;2022-12-10T22:50:18;0.90;98.80
25360;DHT22;13311;51.386;0.016;2022-12-10T22:55:19;0.80;98.70
25360;DHT22;13311;51.386;0.016;2022-12-10T23:00:21;0.70;98.70
25360;DHT22;13311;51.386;0.016;2022-12-10T23:05:22;0.70;98.60
25360;DHT22;13311;51.386;0.016;2022-12-10T23:10:23;0.70;98.60
25360;DHT22;13311;51.386;0.016;2022-12-10T23:15:24;0.70;98.50
25360;DHT22;13311;51.386;0.016;2022-12-10T23:20:25;0.60;98.40
25360;DHT22;13311;51.386;0.016;2022-12-10T23:25:26;0.60;98.30
25360;DHT22;13311;51.386;0.016;2022-12-10T23:30:27;0.60;98.30
25360;DHT22;13311;51.386;0.016;2022-12-10T23:35:28;0.60;98.10
25360;DHT22;13311;51.386;0.016;2022-12-10T23:40:29;0.60;98.00
25360;DHT22;13311;51.386;0.016;2022-12-10T23:45:29;0.50;98.30
25360;DHT22;13311;51.386;0.016;2022-12-10T23:50:30;0.50;98.50
25360;DHT22;13311;51.386;0.016;2022-12-10T23:55:32;0.50;98.70
